Observation data for Roaring Springs on 05/22/2020      Previous  Date  Next       Current Mesonet Observations  Soil Data  Daily Summary Page  Observations in Plain Language
KRRS 220500Z 16010G15KT 24/18 A2978 RMK A01 T02370177  RH  073%=      5-min Rain = 0
KRRS 220505Z 16010G15KT 24/18 A2978 RMK A01 T02370178  RH  073%=      5-min Rain = 0
KRRS 220510Z 16009G14KT 24/18 A2978 RMK A01 T02360179  RH  074%=      5-min Rain = 0
KRRS 220515Z 16010KT 24/18 A2978 RMK A01 T02350180  RH  075%=      5-min Rain = 0
KRRS 220520Z 14012KT 23/18 A2978 RMK A01 T02330180  RH  076%=      5-min Rain = 0
KRRS 220525Z 15012KT 23/18 A2978 RMK A01 T02320180  RH  077%=      5-min Rain = 0
KRRS 220530Z 15010KT 23/18 A2979 RMK A01 T02310180  RH  077%=      5-min Rain = 0
KRRS 220535Z 17010KT 23/18 A2979 RMK A01 T02310181  RH  077%=      5-min Rain = 0
KRRS 220540Z 17009KT 23/18 A2979 RMK A01 T02290181  RH  078%=      5-min Rain = 0
KRRS 220545Z 17009G14KT 23/18 A2978 RMK A01 T02280182  RH  079%=      5-min Rain = 0
KRRS 220550Z 17008KT 23/18 A2979 RMK A01 T02270182  RH  080%=      5-min Rain = 0
KRRS 220555Z 17008KT 23/18 A2979 RMK A01 T02250183  RH  081%=      5-min Rain = 0
KRRS 220600Z 17008KT 23/18 A2978 RMK A01 T02250183  RH  082%=      5-min Rain = 0
KRRS 220605Z 16009KT 23/18 A2979 RMK A01 T02260184  RH  082%=      5-min Rain = 0
KRRS 220610Z 16008KT 23/19 A2978 RMK A01 T02260185  RH  082%=      5-min Rain = 0
KRRS 220615Z 17009G14KT 23/19 A2978 RMK A01 T02260186  RH  082%=      5-min Rain = 0
KRRS 220620Z 16010KT 23/19 A2978 RMK A01 T02270187  RH  082%=      5-min Rain = 0
KRRS 220625Z 16011G16KT 23/19 A2978 RMK A01 T02290188  RH  082%=      5-min Rain = 0
KRRS 220630Z 16011G16KT 23/19 A2978 RMK A01 T02310188  RH  081%=      5-min Rain = 0
KRRS 220635Z 17011KT 23/19 A2977 RMK A01 T02310188  RH  081%=      5-min Rain = 0
KRRS 220640Z 17010G16KT 23/19 A2977 RMK A01 T02310189  RH  081%=      5-min Rain = 0
KRRS 220645Z 17012KT 23/19 A2977 RMK A01 T02310189  RH  081%=      5-min Rain = 0
KRRS 220650Z 17011G16KT 23/19 A2977 RMK A01 T02290188  RH  082%=      5-min Rain = 0
KRRS 220655Z 17011KT 23/19 A2977 RMK A01 T02280188  RH  083%=      5-min Rain = 0
KRRS 220700Z 17011KT 23/19 A2977 RMK A01 T02270188  RH  083%=      5-min Rain = 0
KRRS 220705Z 17010G15KT 23/19 A2977 RMK A01 T02260188  RH  083%=      5-min Rain = 0
KRRS 220710Z 17010KT 23/19 A2977 RMK A01 T02250188  RH  084%=      5-min Rain = 0
KRRS 220715Z 17010KT 22/19 A2977 RMK A01 T02240188  RH  084%=      5-min Rain = 0
KRRS 220720Z 17009KT 22/19 A2977 RMK A01 T02230188  RH  085%=      5-min Rain = 0
KRRS 220725Z 17010KT 22/19 A2977 RMK A01 T02220188  RH  085%=      5-min Rain = 0
KRRS 220730Z 17008KT 22/19 A2976 RMK A01 T02210187  RH  086%=      5-min Rain = 0
KRRS 220735Z 17008KT 22/19 A2976 RMK A01 T02190187  RH  087%=      5-min Rain = 0
KRRS 220740Z 16007G12KT 22/19 A2976 RMK A01 T02170187  RH  088%=      5-min Rain = 0
KRRS 220745Z 17007KT 22/19 A2976 RMK A01 T02150187  RH  088%=      5-min Rain = 0
KRRS 220750Z 17007KT 21/19 A2976 RMK A01 T02140186  RH  089%=      5-min Rain = 0
KRRS 220755Z 17008KT 21/19 A2976 RMK A01 T02110186  RH  090%=      5-min Rain = 0
KRRS 220800Z 18007KT 21/19 A2976 RMK A01 T02100185  RH  091%=      5-min Rain = 0
KRRS 220805Z 19007KT 21/19 A2976 RMK A01 T02070185  RH  092%=      5-min Rain = 0
KRRS 220810Z 20007KT 21/18 A2976 RMK A01 T02060184  RH  092%=      5-min Rain = 0
KRRS 220815Z 21006KT 20/18 A2976 RMK A01 T02040183  RH  093%=      5-min Rain = 0
KRRS 220820Z 21007KT 20/18 A2976 RMK A01 T02000181  RH  094%=      5-min Rain = 0
KRRS 220825Z 20007KT 20/18 A2976 RMK A01 T01970180  RH  095%=      5-min Rain = 0
KRRS 220830Z 20008KT 20/18 A2976 RMK A01 T01980181  RH  094%=      5-min Rain = 0
KRRS 220835Z 20009KT 20/18 A2976 RMK A01 T02020180  RH  092%=      5-min Rain = 0
KRRS 220840Z 19009KT 20/18 A2976 RMK A01 T02040180  RH  090%=      5-min Rain = 0
KRRS 220845Z 20008KT 20/18 A2976 RMK A01 T02030178  RH  090%=      5-min Rain = 0
KRRS 220850Z 20007KT 20/18 A2975 RMK A01 T02010177  RH  091%=      5-min Rain = 0
KRRS 220855Z 21008KT 20/18 A2975 RMK A01 T02000175  RH  090%=      5-min Rain = 0
KRRS 220900Z 21007KT 20/17 A2975 RMK A01 T02000173  RH  089%=      5-min Rain = 0
KRRS 220905Z 21007KT 20/17 A2975 RMK A01 T01990170  RH  087%=      5-min Rain = 0
KRRS 220910Z 21009KT 20/17 A2975 RMK A01 T02000166  RH  085%=      5-min Rain = 0
KRRS 220915Z 20010KT 20/16 A2975 RMK A01 T02010161  RH  082%=      5-min Rain = 0
KRRS 220920Z 21010KT 20/16 A2976 RMK A01 T02020158  RH  079%=      5-min Rain = 0
KRRS 220925Z 22011G16KT 20/15 A2975 RMK A01 T02020153  RH  077%=      5-min Rain = 0
KRRS 220930Z 23012G19KT 20/15 A2975 RMK A01 T02030146  RH  073%=      5-min Rain = 0
KRRS 220935Z 24011G17KT 20/14 A2975 RMK A01 T02010138  RH  070%=      5-min Rain = 0
KRRS 220940Z 24013G18KT 20/12 A2975 RMK A01 T02010121  RH  063%=      5-min Rain = 0
KRRS 220945Z 23015KT 20/11 A2975 RMK A01 T02040105  RH  055%=      5-min Rain = 0
KRRS 220950Z 23014G21KT 21/10 A2975 RMK A01 T02050095  RH  051%=      5-min Rain = 0
KRRS 220955Z 23014KT 20/09 A2976 RMK A01 T02040085  RH  048%=      5-min Rain = 0
KRRS 221000Z 23015G21KT 21/07 A2976 RMK A01 T02060069  RH  042%=      5-min Rain = 0
KRRS 221005Z 23013G20KT 21/06 A2976 RMK A01 T02060056  RH  038%=      5-min Rain = 0
KRRS 221010Z 23013KT 21/04 A2977 RMK A01 T02070042  RH  034%=      5-min Rain = 0
KRRS 221015Z 24011G16KT 21/04 A2977 RMK A01 T02050036  RH  033%=      5-min Rain = 0
KRRS 221020Z 24011G16KT 20/03 A2977 RMK A01 T02040030  RH  032%=      5-min Rain = 0
KRRS 221025Z 24010KT 20/03 A2978 RMK A01 T02030026  RH  031%=      5-min Rain = 0
KRRS 221030Z 24010KT 20/02 A2978 RMK A01 T02000024  RH  031%=      5-min Rain = 0
KRRS 221035Z 25009KT 20/02 A2979 RMK A01 T01970023  RH  032%=      5-min Rain = 0
KRRS 221040Z 25010KT 19/02 A2979 RMK A01 T01940020  RH  032%=      5-min Rain = 0
KRRS 221045Z 28010KT 19/03 A2979 RMK A01 T01890026  RH  034%=      5-min Rain = 0
KRRS 221050Z 26011KT 18/03 A2979 RMK A01 T01840028  RH  036%=      5-min Rain = 0
KRRS 221055Z 24011KT 18/02 A2979 RMK A01 T01840019  RH  034%=      5-min Rain = 0
KRRS 221100Z 26010KT 18/02 A298 RMK A01 T01820019  RH  034%=      5-min Rain = 0
KRRS 221105Z 25010G15KT 18/01 A298 RMK A01 T01820011  RH  032%=      5-min Rain = 0
KRRS 221110Z 24009KT 18/01 A298 RMK A01 T01840008  RH  031%=      5-min Rain = 0
KRRS 221115Z 24009KT 18/01 A298 RMK A01 T01810008  RH  032%=      5-min Rain = 0
KRRS 221120Z 25008KT 18/01 A298 RMK A01 T01800006  RH  031%=      5-min Rain = 0
KRRS 221125Z 25011G16KT 18/00 A2981 RMK A01 T01810000  RH  030%=      5-min Rain = 0
KRRS 221130Z 24013G18KT 19/M00 A2981 RMK A01 T01871003  RH  028%=      5-min Rain = 0
KRRS 221135Z 24011KT 19/00 A2981 RMK A01 T01850001  RH  029%=      5-min Rain = 0
KRRS 221140Z 26008KT 18/01 A2981 RMK A01 T01760010  RH  033%=      5-min Rain = 0
KRRS 221145Z 25009KT 17/01 A2982 RMK A01 T01650013  RH  036%=      5-min Rain = 0
KRRS 221150Z 25011KT 17/00 A2981 RMK A01 T01700001  RH  032%=      5-min Rain = 0
KRRS 221155Z 24010G15KT 18/00 A2982 RMK A01 T018000-0  RH  030%=      5-min Rain = 0
KRRS 221200Z 25010KT 18/M00 A2982 RMK A01 T01811002  RH  029%=      5-min Rain = 0
KRRS 221205Z 25010KT 19/M00 A2982 RMK A01 T01871004  RH  028%=      5-min Rain = 0
KRRS 221210Z 26009KT 19/00 A2982 RMK A01 T018900-0  RH  028%=      5-min Rain = 0
KRRS 221215Z 25010KT 19/M00 A2982 RMK A01 T01881001  RH  028%=      5-min Rain = 0
KRRS 221220Z 25010KT 19/00 A2982 RMK A01 T019200-0  RH  028%=      5-min Rain = 0
KRRS 221225Z 25011KT 20/M00 A2982 RMK A01 T01961002  RH  027%=      5-min Rain = 0
KRRS 221230Z 24011KT 20/00 A2982 RMK A01 T01980000  RH  027%=      5-min Rain = 0
KRRS 221235Z 24010G15KT 20/00 A2983 RMK A01 T02000002  RH  027%=      5-min Rain = 0
KRRS 221240Z 25008KT 20/01 A2983 RMK A01 T01980013  RH  029%=      5-min Rain = 0
KRRS 221245Z 24010KT 20/01 A2983 RMK A01 T01990012  RH  029%=      5-min Rain = 0
KRRS 221250Z 24009KT 20/01 A2983 RMK A01 T02030010  RH  028%=      5-min Rain = 0
KRRS 221255Z 23008KT 20/02 A2983 RMK A01 T02040016  RH  029%=      5-min Rain = 0
KRRS 221300Z 22008KT 20/02 A2983 RMK A01 T02040024  RH  031%=      5-min Rain = 0
KRRS 221305Z 23008KT 21/03 A2983 RMK A01 T02050025  RH  031%=      5-min Rain = 0
KRRS 221310Z 22009KT 21/02 A2984 RMK A01 T02080024  RH  030%=      5-min Rain = 0
KRRS 221315Z 20007KT 21/03 A2984 RMK A01 T02100034  RH  032%=      5-min Rain = 0
KRRS 221320Z 21008KT 21/03 A2985 RMK A01 T02130028  RH  030%=      5-min Rain = 0
KRRS 221325Z 25008KT 22/03 A2985 RMK A01 T02150026  RH  029%=      5-min Rain = 0
KRRS 221330Z 27007KT 22/03 A2986 RMK A01 T02170027  RH  029%=      5-min Rain = 0
KRRS 221335Z 34008KT 22/04 A2987 RMK A01 T02220039  RH  031%=      5-min Rain = 0
KRRS 221340Z 33010KT 22/03 A2987 RMK A01 T02220030  RH  029%=      5-min Rain = 0
KRRS 221345Z 31009KT 22/01 A2987 RMK A01 T02210012  RH  025%=      5-min Rain = 0
KRRS 221350Z 31009KT 23/02 A2987 RMK A01 T02250017  RH  026%=      5-min Rain = 0
KRRS 221355Z 31009KT 23/01 A2987 RMK A01 T02280012  RH  024%=      5-min Rain = 0
KRRS 221400Z 32010KT 23/01 A2987 RMK A01 T02280011  RH  024%=      5-min Rain = 0
KRRS 221405Z 30007G12KT 23/02 A2987 RMK A01 T02300015  RH  025%=      5-min Rain = 0
KRRS 221410Z 23004KT 23/01 A2987 RMK A01 T02310013  RH  024%=      5-min Rain = 0
KRRS 221415Z 25005KT 23/01 A2987 RMK A01 T02340013  RH  024%=      5-min Rain = 0
KRRS 221420Z 26006KT 24/02 A2988 RMK A01 T02350017  RH  024%=      5-min Rain = 0
KRRS 221425Z 30005KT 24/02 A2988 RMK A01 T02370017  RH  024%=      5-min Rain = 0
KRRS 221430Z 27003KT 24/02 A2988 RMK A01 T02390017  RH  024%=      5-min Rain = 0
KRRS 221435Z 24007KT 24/02 A2988 RMK A01 T02400022  RH  024%=      5-min Rain = 0
KRRS 221440Z 23007KT 24/03 A2988 RMK A01 T02430026  RH  025%=      5-min Rain = 0
KRRS 221445Z 24007KT 25/02 A2988 RMK A01 T02450020  RH  023%=      5-min Rain = 0
KRRS 221450Z 25006KT 25/02 A2988 RMK A01 T02470015  RH  022%=      5-min Rain = 0
KRRS 221455Z 26006KT 25/01 A2988 RMK A01 T02480013  RH  022%=      5-min Rain = 0
KRRS 221500Z 28006KT 25/02 A2988 RMK A01 T02510015  RH  022%=      5-min Rain = 0
KRRS 221505Z 26007G12KT 25/01 A2988 RMK A01 T02510012  RH  021%=      5-min Rain = 0
KRRS 221510Z 25007KT 25/01 A2987 RMK A01 T02520012  RH  021%=      5-min Rain = 0
KRRS 221515Z 24007KT 25/01 A2987 RMK A01 T02530007  RH  020%=      5-min Rain = 0
KRRS 221520Z 24007KT 25/01 A2988 RMK A01 T02530009  RH  021%=      5-min Rain = 0
KRRS 221525Z 21005KT 26/02 A2988 RMK A01 T02570022  RH  022%=      5-min Rain = 0
KRRS 221530Z 24006KT 26/02 A2988 RMK A01 T02590015  RH  021%=      5-min Rain = 0
KRRS 221535Z 22005G10KT 26/02 A2988 RMK A01 T02590020  RH  021%=      5-min Rain = 0
KRRS 221540Z 20007KT 27/02 A2987 RMK A01 T02650024  RH  021%=      5-min Rain = 0
KRRS 221545Z 22008KT 27/01 A2987 RMK A01 T02670013  RH  020%=      5-min Rain = 0
KRRS 221550Z 22007KT 27/01 A2987 RMK A01 T02670013  RH  019%=      5-min Rain = 0
KRRS 221555Z 24008KT 27/01 A2987 RMK A01 T02680010  RH  019%=      5-min Rain = 0
KRRS 221600Z 24008KT 27/01 A2987 RMK A01 T02700012  RH  019%=      5-min Rain = 0
KRRS 221605Z 25007KT 27/01 A2987 RMK A01 T02720011  RH  019%=      5-min Rain = 0
KRRS 221610Z 25008KT 27/01 A2987 RMK A01 T02720012  RH  019%=      5-min Rain = 0
KRRS 221615Z 28007KT 28/02 A2987 RMK A01 T02750016  RH  019%=      5-min Rain = 0
KRRS 221620Z 27007KT 28/01 A2987 RMK A01 T02770012  RH  018%=      5-min Rain = 0
KRRS 221625Z 28007KT 28/01 A2988 RMK A01 T02770009  RH  018%=      5-min Rain = 0
KRRS 221630Z 27006KT 28/00 A2988 RMK A01 T02790003  RH  017%=      5-min Rain = 0
KRRS 221635Z 28005KT 28/01 A2988 RMK A01 T02790007  RH  017%=      5-min Rain = 0
KRRS 221640Z 28005KT 28/01 A2988 RMK A01 T02810009  RH  017%=      5-min Rain = 0
KRRS 221645Z 27005KT 29/02 A2988 RMK A01 T02860016  RH  018%=      5-min Rain = 0
KRRS 221650Z 25007G13KT 29/01 A2987 RMK A01 T02890005  RH  016%=      5-min Rain = 0
KRRS 221655Z 27007G12KT 29/01 A2987 RMK A01 T02890009  RH  017%=      5-min Rain = 0
KRRS 221700Z 25007KT 29/01 A2987 RMK A01 T02930012  RH  017%=      5-min Rain = 0
KRRS 221705Z 26007KT 30/01 A2987 RMK A01 T02950009  RH  016%=      5-min Rain = 0
KRRS 221710Z 30007KT 30/02 A2987 RMK A01 T02960015  RH  017%=      5-min Rain = 0
KRRS 221715Z 27006G12KT 30/01 A2987 RMK A01 T02980006  RH  015%=      5-min Rain = 0
KRRS 221720Z 27006KT 30/01 A2987 RMK A01 T02990011  RH  016%=      5-min Rain = 0
KRRS 221725Z 28006G12KT 30/00 A2987 RMK A01 T02980004  RH  015%=      5-min Rain = 0
KRRS 221730Z 28006KT 30/01 A2987 RMK A01 T02980011  RH  016%=      5-min Rain = 0
KRRS 221735Z 26006G11KT 30/01 A2987 RMK A01 T03020012  RH  016%=      5-min Rain = 0
KRRS 221740Z 28008KT 30/01 A2987 RMK A01 T03010013  RH  016%=      5-min Rain = 0
KRRS 221745Z 25006G11KT 31/02 A2987 RMK A01 T03060022  RH  017%=      5-min Rain = 0
KRRS 221750Z 26008G13KT 31/01 A2987 RMK A01 T03060014  RH  016%=      5-min Rain = 0
KRRS 221755Z 23007KT 31/01 A2987 RMK A01 T03050006  RH  015%=      5-min Rain = 0
KRRS 221800Z 24007KT 31/02 A2987 RMK A01 T03100016  RH  016%=      5-min Rain = 0
KRRS 221805Z 27006KT 31/03 A2987 RMK A01 T03100026  RH  017%=      5-min Rain = 0
KRRS 221810Z 27006KT 31/02 A2987 RMK A01 T03120022  RH  016%=      5-min Rain = 0
KRRS 221815Z 23005KT 31/00 A2987 RMK A01 T03120002  RH  014%=      5-min Rain = 0
KRRS 221820Z 28005KT 31/02 A2987 RMK A01 T03130019  RH  016%=      5-min Rain = 0
KRRS 221825Z 33003KT 31/02 A2987 RMK A01 T03130019  RH  016%=      5-min Rain = 0
KRRS 221830Z 28005KT 32/02 A2986 RMK A01 T03160020  RH  015%=      5-min Rain = 0
KRRS 221835Z 29005G10KT 32/02 A2986 RMK A01 T03160016  RH  015%=      5-min Rain = 0
KRRS 221840Z 26003KT 32/01 A2986 RMK A01 T03170006  RH  014%=      5-min Rain = 0
KRRS 221845Z 19004KT 32/01 A2986 RMK A01 T03190008  RH  014%=      5-min Rain = 0
KRRS 221850Z 22005KT 32/01 A2986 RMK A01 T03200014  RH  014%=      5-min Rain = 0
KRRS 221855Z 22004KT 32/01 A2986 RMK A01 T03200011  RH  014%=      5-min Rain = 0
KRRS 221900Z 21006KT 32/01 A2986 RMK A01 T03200010  RH  014%=      5-min Rain = 0
KRRS 221905Z 21004KT 32/02 A2985 RMK A01 T03230015  RH  014%=      5-min Rain = 0
KRRS 221910Z 28005KT 33/M00 A2985 RMK A01 T03251001  RH  013%=      5-min Rain = 0
KRRS 221915Z 28005KT 32/M01 A2985 RMK A01 T03241013  RH  012%=      5-min Rain = 0
KRRS 221920Z 21003G9KT 32/00 A2985 RMK A01 T032300-0  RH  013%=      5-min Rain = 0
KRRS 221925Z 20009KT 33/M02 A2985 RMK A01 T03261015  RH  011%=      5-min Rain = 0
KRRS 221930Z 22007G12KT 33/M02 A2985 RMK A01 T03271019  RH  011%=      5-min Rain = 0
KRRS 221935Z 18005KT 33/M01 A2985 RMK A01 T03271013  RH  011%=      5-min Rain = 0
KRRS 221940Z 18003KT 33/M02 A2984 RMK A01 T03251016  RH  011%=      5-min Rain = 0
KRRS 221945Z 18005KT 33/M01 A2984 RMK A01 T03261007  RH  012%=      5-min Rain = 0
KRRS 221950Z 17008G14KT 33/M02 A2984 RMK A01 T03291017  RH  011%=      5-min Rain = 0
KRRS 221955Z 15007KT 33/M02 A2984 RMK A01 T03291016  RH  011%=      5-min Rain = 0
KRRS 222000Z 17005KT 33/M01 A2984 RMK A01 T03321012  RH  011%=      5-min Rain = 0
KRRS 222005Z 28003KT 34/M01 A2983 RMK A01 T03361007  RH  011%=      5-min Rain = 0
KRRS 222010Z 26007KT 33/M01 A2983 RMK A01 T03341012  RH  011%=      5-min Rain = 0
KRRS 222015Z 21011G18KT 34/M02 A2983 RMK A01 T03351018  RH  011%=      5-min Rain = 0
KRRS 222020Z 19007G14KT 33/M03 A2983 RMK A01 T03331025  RH  010%=      5-min Rain = 0
KRRS 222025Z 20004G10KT 33/M03 A2983 RMK A01 T03331026  RH  010%=      5-min Rain = 0
KRRS 222030Z 25004KT 33/M03 A2983 RMK A01 T03331031  RH  010%=      5-min Rain = 0
KRRS 222035Z 22003KT 33/M02 A2982 RMK A01 T03341018  RH  011%=      5-min Rain = 0
KRRS 222040Z 24006G14KT 34/M02 A2982 RMK A01 T03361019  RH  010%=      5-min Rain = 0
KRRS 222045Z 25005KT 34/M02 A2982 RMK A01 T03381016  RH  010%=      5-min Rain = 0
KRRS 222050Z 23008G14KT 34/M02 A2982 RMK A01 T03391018  RH  010%=      5-min Rain = 0
KRRS 222055Z 21008G13KT 34/M03 A2982 RMK A01 T03371027  RH  010%=      5-min Rain = 0
KRRS 222100Z 23005G10KT 34/M03 A2981 RMK A01 T03361028  RH  010%=      5-min Rain = 0
KRRS 222105Z 26005KT 34/M02 A2981 RMK A01 T03391021  RH  010%=      5-min Rain = 0
KRRS 222110Z 24006G12KT 34/M03 A2981 RMK A01 T03391025  RH  010%=      5-min Rain = 0
KRRS 222115Z 21004G12KT 34/M02 A2981 RMK A01 T03401019  RH  010%=      5-min Rain = 0
KRRS 222120Z 22005G13KT 34/M03 A298 RMK A01 T03401030  RH  009%=      5-min Rain = 0
KRRS 222125Z 25009KT 34/M03 A298 RMK A01 T03401029  RH  009%=      5-min Rain = 0
KRRS 222130Z 23008KT 34/M04 A298 RMK A01 T03391036  RH  009%=      5-min Rain = 0
KRRS 222135Z 27005KT 34/M04 A298 RMK A01 T03391035  RH  009%=      5-min Rain = 0
KRRS 222140Z 27005KT 34/M03 A298 RMK A01 T03401029  RH  009%=      5-min Rain = 0
KRRS 222145Z 26005KT 34/M03 A298 RMK A01 T03411032  RH  009%=      5-min Rain = 0
KRRS 222150Z 27005KT 34/M04 A298 RMK A01 T03411038  RH  009%=      5-min Rain = 0
KRRS 222155Z 26006KT 34/M03 A2979 RMK A01 T03421031  RH  009%=      5-min Rain = 0
KRRS 222200Z 25008KT 35/M02 A2979 RMK A01 T03461020  RH  010%=      5-min Rain = 0
KRRS 222205Z 26010KT 35/M03 A2979 RMK A01 T03451026  RH  009%=      5-min Rain = 0
KRRS 222210Z 29007KT 34/M03 A2979 RMK A01 T03431031  RH  009%=      5-min Rain = 0
KRRS 222215Z 28006G11KT 34/M03 A2979 RMK A01 T03421030  RH  009%=      5-min Rain = 0
KRRS 222220Z 25007KT 34/M03 A2979 RMK A01 T03441027  RH  009%=      5-min Rain = 0
KRRS 222225Z 23002KT 34/M04 A2979 RMK A01 T03431036  RH  009%=      5-min Rain = 0
KRRS 222230Z 25006G11KT 35/M03 A2979 RMK A01 T03461025  RH  009%=      5-min Rain = 0
KRRS 222235Z 27009KT 35/M03 A2978 RMK A01 T03451030  RH  009%=      5-min Rain = 0
KRRS 222240Z 28007KT 34/M04 A2978 RMK A01 T03431037  RH  009%=      5-min Rain = 0
KRRS 222245Z 28008KT 34/M03 A2978 RMK A01 T03421032  RH  009%=      5-min Rain = 0
KRRS 222250Z 33004KT 34/M04 A2978 RMK A01 T03421038  RH  009%=      5-min Rain = 0
KRRS 222255Z 26005KT 34/M02 A2978 RMK A01 T03441021  RH  010%=      5-min Rain = 0
KRRS 222300Z 23005KT 34/M02 A2978 RMK A01 T03441020  RH  010%=      5-min Rain = 0
KRRS 222305Z 27007KT 34/M03 A2978 RMK A01 T03441030  RH  009%=      5-min Rain = 0
KRRS 222310Z 27009KT 34/M03 A2978 RMK A01 T03431030  RH  009%=      5-min Rain = 0
KRRS 222315Z 27008KT 34/M04 A2978 RMK A01 T03411036  RH  009%=      5-min Rain = 0
KRRS 222320Z 27006KT 34/M04 A2977 RMK A01 T03401037  RH  009%=      5-min Rain = 0
KRRS 222325Z 33003KT 34/M04 A2977 RMK A01 T03421037  RH  009%=      5-min Rain = 0
KRRS 222330Z 34002KT 34/M04 A2977 RMK A01 T03431042  RH  008%=      5-min Rain = 0
KRRS 222335Z 28004KT 34/M03 A2977 RMK A01 T03441029  RH  009%=      5-min Rain = 0
KRRS 222340Z 28005KT 34/M03 A2976 RMK A01 T03431032  RH  009%=      5-min Rain = 0
KRRS 222345Z 27003KT 34/M03 A2976 RMK A01 T03421027  RH  009%=      5-min Rain = 0
KRRS 222350Z 26004G10KT 34/M02 A2976 RMK A01 T03431021  RH  010%=      5-min Rain = 0
KRRS 222355Z 28005KT 34/M02 A2976 RMK A01 T03411019  RH  010%=      5-min Rain = 0
KRRS 230000Z 24003KT 34/M03 A2976 RMK A01 T03401033  RH  009%=      5-min Rain = 0
KRRS 230005Z 20002KT 34/M02 A2976 RMK A01 T03421023  RH  010%=      5-min Rain = 0
KRRS 230010Z 23003KT 34/M02 A2976 RMK A01 T03401024  RH  010%=      5-min Rain = 0
KRRS 230015Z 27003KT 34/M03 A2976 RMK A01 T03391030  RH  009%=      5-min Rain = 0
KRRS 230020Z 30002KT 34/M03 A2976 RMK A01 T03421028  RH  009%=      5-min Rain = 0
KRRS 230025Z 30001KT 34/M03 A2976 RMK A01 T03421027  RH  009%=      5-min Rain = 0
KRRS 230030Z 00000KT 34/M01 A2976 RMK A01 T03441013  RH  010%=      5-min Rain = 0
KRRS 230035Z 05000KT 34/00 A2976 RMK A01 T03420002  RH  012%=      5-min Rain = 0
KRRS 230040Z 26001KT 35/01 A2976 RMK A01 T03450014  RH  013%=      5-min Rain = 0
KRRS 230045Z 32001KT 34/M01 A2976 RMK A01 T03431009  RH  011%=      5-min Rain = 0
KRRS 230050Z 31001KT 34/M01 A2976 RMK A01 T03411010  RH  011%=      5-min Rain = 0
KRRS 230055Z 36001KT 34/01 A2976 RMK A01 T03390006  RH  012%=      5-min Rain = 0
KRRS 230100Z 01001KT 33/M00 A2976 RMK A01 T03341001  RH  012%=      5-min Rain = 0
KRRS 230105Z 01001KT 33/M01 A2976 RMK A01 T03301009  RH  011%=      5-min Rain = 0
KRRS 230110Z 05001KT 33/M03 A2976 RMK A01 T03281025  RH  010%=      5-min Rain = 0
KRRS 230115Z 06001KT 33/M03 A2976 RMK A01 T03251025  RH  010%=      5-min Rain = 0
KRRS 230120Z 07002KT 32/M03 A2976 RMK A01 T03231031  RH  010%=      5-min Rain = 0
KRRS 230125Z 07003KT 32/M02 A2976 RMK A01 T03201024  RH  011%=      5-min Rain = 0
KRRS 230130Z 08003KT 32/M03 A2976 RMK A01 T03171032  RH  010%=      5-min Rain = 0
KRRS 230135Z 08003KT 32/M04 A2976 RMK A01 T03161035  RH  010%=      5-min Rain = 0
KRRS 230140Z 07004KT 31/M03 A2976 RMK A01 T03131029  RH  011%=      5-min Rain = 0
KRRS 230145Z 08003KT 30/M02 A2976 RMK A01 T03041019  RH  012%=      5-min Rain = 0
KRRS 230150Z 06002KT 30/M01 A2976 RMK A01 T02971007  RH  014%=      5-min Rain = 0
KRRS 230155Z 04003KT 29/01 A2976 RMK A01 T02940006  RH  016%=      5-min Rain = 0
KRRS 230200Z 02003KT 29/M01 A2976 RMK A01 T02911010  RH  014%=      5-min Rain = 0
KRRS 230205Z 01003KT 29/M01 A2976 RMK A01 T02891011  RH  014%=      5-min Rain = 0
KRRS 230210Z 02004KT 29/M02 A2976 RMK A01 T02881019  RH  014%=      5-min Rain = 0
KRRS 230215Z 03007KT 28/M02 A2976 RMK A01 T02841017  RH  014%=      5-min Rain = 0
KRRS 230220Z 04008KT 28/01 A2976 RMK A01 T02750006  RH  018%=      5-min Rain = 0
KRRS 230225Z 04007KT 27/02 A2976 RMK A01 T02670024  RH  021%=      5-min Rain = 0
KRRS 230230Z 04007KT 26/05 A2976 RMK A01 T02600046  RH  026%=      5-min Rain = 0
KRRS 230235Z 02006KT 26/06 A2977 RMK A01 T02570061  RH  029%=      5-min Rain = 0
KRRS 230240Z 02007KT 25/07 A2977 RMK A01 T02530072  RH  032%=      5-min Rain = 0
KRRS 230245Z 01007KT 25/08 A2977 RMK A01 T02490078  RH  034%=      5-min Rain = 0
KRRS 230250Z 02007KT 25/09 A2977 RMK A01 T02480087  RH  037%=      5-min Rain = 0
KRRS 230255Z 02007KT 25/09 A2978 RMK A01 T02490093  RH  038%=      5-min Rain = 0
KRRS 230300Z 02007KT 25/10 A2978 RMK A01 T02480096  RH  040%=      5-min Rain = 0
KRRS 230305Z 03007KT 25/10 A2978 RMK A01 T02470099  RH  041%=      5-min Rain = 0
KRRS 230310Z 03007KT 25/10 A2978 RMK A01 T02460102  RH  041%=      5-min Rain = 0
KRRS 230315Z 04007KT 24/10 A2979 RMK A01 T02430104  RH  043%=      5-min Rain = 0
KRRS 230320Z 05007KT 24/11 A2979 RMK A01 T02400106  RH  044%=      5-min Rain = 0
KRRS 230325Z 04006KT 24/11 A2979 RMK A01 T02390107  RH  045%=      5-min Rain = 0
KRRS 230330Z 04005KT 24/11 A2979 RMK A01 T02400106  RH  044%=      5-min Rain = 0
KRRS 230335Z 05006KT 24/11 A2979 RMK A01 T02400106  RH  044%=      5-min Rain = 0
KRRS 230340Z 05006KT 24/11 A2979 RMK A01 T02390108  RH  045%=      5-min Rain = 0
KRRS 230345Z 05007KT 24/11 A2979 RMK A01 T02390111  RH  046%=      5-min Rain = 0
KRRS 230350Z 06007KT 24/11 A2979 RMK A01 T02390114  RH  047%=      5-min Rain = 0
KRRS 230355Z 05007KT 24/12 A2979 RMK A01 T02390117  RH  048%=      5-min Rain = 0
KRRS 230400Z 06007KT 24/12 A2979 RMK A01 T02390122  RH  050%=      5-min Rain = 0
KRRS 230405Z 06007KT 24/13 A2979 RMK A01 T02400126  RH  051%=      5-min Rain = 0
KRRS 230410Z 07007KT 24/13 A2979 RMK A01 T02380128  RH  052%=      5-min Rain = 0
KRRS 230415Z 08007KT 24/13 A2979 RMK A01 T02350128  RH  053%=      5-min Rain = 0
KRRS 230420Z 09007KT 23/13 A2979 RMK A01 T02320129  RH  054%=      5-min Rain = 0
KRRS 230425Z 08006KT 23/13 A2978 RMK A01 T02310128  RH  055%=      5-min Rain = 0
KRRS 230430Z 07005KT 23/13 A2978 RMK A01 T02280127  RH  055%=      5-min Rain = 0
KRRS 230435Z 06006KT 22/13 A2978 RMK A01 T02240130  RH  057%=      5-min Rain = 0
KRRS 230440Z 05007KT 22/13 A2978 RMK A01 T02200134  RH  061%=      5-min Rain = 0
KRRS 230445Z 05007KT 22/15 A2978 RMK A01 T02180147  RH  067%=      5-min Rain = 0
KRRS 230450Z 06007KT 22/16 A2978 RMK A01 T02220159  RH  071%=      5-min Rain = 0
KRRS 230455Z 06008KT 22/16 A2978 RMK A01 T02220162  RH  072%=      5-min Rain = 0

Page generated in 0.0095 seconds.